Time;durP1;ratioP1;P1;durP2;ratioP2;P2;SDS_P1;SDS_P2;PMS_P1;PMS_P2;Temp;Humidity;BMP_temperature;BMP_pressure;BME280_temperature;BME280_humidity;BME280_pressure;Samples;Min_cycle;Max_cycle;Signal;HPM_P1;HPM_P2
2022/03/04 00:01:22;;;;;;;7.70;6.47;;;21.10;49.30;;;;;;5014500;28;20229;-70
2022/03/04 00:03:48;;;;;;;7.15;6.45;;;21.10;49.30;;;;;;4997788;28;20261;-69
2022/03/04 00:06:14;;;;;;;6.57;5.97;;;21.10;49.30;;;;;;4996306;28;20212;-70
2022/03/04 00:08:40;;;;;;;6.70;6.00;;;21.10;49.30;;;;;;4996447;28;20207;-69
2022/03/04 00:11:07;;;;;;;7.55;6.63;;;21.10;49.30;;;;;;4996662;28;20187;-70
2022/03/04 00:13:33;;;;;;;8.02;6.60;;;21.10;49.30;;;;;;5012595;28;20183;-70
2022/03/04 00:15:59;;;;;;;7.80;7.00;;;21.10;49.30;;;;;;5016441;28;20266;-70
2022/03/04 00:18:26;;;;;;;7.38;6.68;;;21.10;49.40;;;;;;5015946;28;20190;-70
2022/03/04 00:20:52;;;;;;;8.02;6.90;;;21.10;49.30;;;;;;5016442;28;20184;-70
2022/03/04 00:23:19;;;;;;;7.88;6.75;;;21.10;49.20;;;;;;4999647;28;20179;-70
2022/03/04 00:25:46;;;;;;;7.30;6.60;;;21.10;49.20;;;;;;5015590;28;20240;-69
2022/03/04 00:28:12;;;;;;;7.53;6.78;;;21.00;49.00;;;;;;4999305;28;20604;-69
2022/03/04 00:30:38;;;;;;;7.80;6.97;;;21.10;49.00;;;;;;4999789;28;20198;-69
2022/03/04 00:33:03;;;;;;;7.65;6.85;;;21.10;49.00;;;;;;4999550;28;20550;-69
2022/03/04 00:35:29;;;;;;;8.32;6.60;;;21.10;48.70;;;;;;5016065;28;20251;-70
2022/03/04 00:37:55;;;;;;;8.73;6.80;;;21.00;48.90;;;;;;4986346;28;20184;-69
2022/03/04 00:40:22;;;;;;;6.50;5.90;;;21.10;49.00;;;;;;4980085;28;20215;-70
2022/03/04 00:42:47;;;;;;;6.95;5.97;;;21.00;48.90;;;;;;4980019;28;20191;-69
2022/03/04 00:45:13;;;;;;;6.78;5.82;;;21.00;49.10;;;;;;5013497;28;20176;-69
2022/03/04 00:47:39;;;;;;;7.13;6.13;;;21.00;49.10;;;;;;4996052;28;20176;-70
2022/03/04 00:50:07;;;;;;;6.50;5.90;;;21.10;49.30;;;;;;4996035;28;20204;-69
2022/03/04 00:52:34;;;;;;;6.50;5.90;;;21.00;49.00;;;;;;4980031;28;20180;-69
2022/03/04 00:55:00;;;;;;;6.35;5.75;;;21.00;49.10;;;;;;4979649;28;20624;-69
2022/03/04 00:57:25;;;;;;;7.85;6.03;;;21.00;49.10;;;;;;4997057;28;20195;-69
2022/03/04 00:59:51;;;;;;;6.38;5.78;;;21.00;49.10;;;;;;4995815;28;20180;-69
2022/03/04 01:02:17;;;;;;;6.32;5.65;;;21.00;49.10;;;;;;4979733;28;20637;-70
2022/03/04 01:04:43;;;;;;;6.68;6.03;;;21.00;49.10;;;;;;4995808;28;20184;-70
2022/03/04 01:07:09;;;;;;;6.93;5.88;;;21.00;49.10;;;;;;5012999;28;20239;-69
2022/03/04 01:09:36;;;;;;;6.95;6.07;;;21.00;49.10;;;;;;4975995;28;20299;-70
2022/03/04 01:12:04;;;;;;;7.20;6.13;;;21.00;49.10;;;;;;4992477;28;20328;-69
2022/03/04 01:14:29;;;;;;;8.70;7.00;;;21.10;49.20;;;;;;4992620;28;20272;-69
2022/03/04 01:16:55;;;;;;;6.80;6.07;;;21.00;49.00;;;;;;4992640;28;20242;-70
2022/03/04 01:19:21;;;;;;;7.47;6.70;;;21.00;49.10;;;;;;4976192;28;20184;-69
2022/03/04 01:21:46;;;;;;;7.50;6.43;;;21.00;49.20;;;;;;4976027;28;20189;-69
2022/03/04 01:24:12;;;;;;;7.07;6.38;;;21.00;49.10;;;;;;4992406;28;20193;-69
2022/03/04 01:26:38;;;;;;;8.00;6.40;;;21.00;49.10;;;;;;4992071;28;20212;-69
2022/03/04 01:29:04;;;;;;;7.50;6.80;;;21.00;48.80;;;;;;4993062;28;20204;-70
2022/03/04 01:31:30;;;;;;;7.45;6.65;;;21.00;49.20;;;;;;4976185;28;20185;-70
2022/03/04 01:33:56;;;;;;;6.85;6.25;;;21.00;48.90;;;;;;4992166;28;20660;-70
2022/03/04 01:36:22;;;;;;;6.78;6.07;;;21.00;49.00;;;;;;4975603;28;20201;-69
2022/03/04 01:38:47;;;;;;;6.53;5.82;;;21.00;48.90;;;;;;4995089;28;20184;-69
2022/03/04 01:41:13;;;;;;;6.00;5.18;;;21.00;49.10;;;;;;4978870;28;20222;-69
2022/03/04 01:43:39;;;;;;;6.90;6.10;;;21.00;49.00;;;;;;4979287;28;20258;-69
2022/03/04 01:46:17;;;;;;;5.97;5.47;;;21.00;49.10;;;;;;4994959;28;20213;-70
2022/03/04 01:48:45;;;;;;;7.25;6.18;;;21.00;49.00;;;;;;4978799;28;20243;-69
2022/03/04 01:51:12;;;;;;;5.97;5.38;;;21.00;49.00;;;;;;4979048;28;20207;-69
2022/03/04 01:53:39;;;;;;;6.10;5.50;;;21.00;49.10;;;;;;4995097;28;20238;-69
2022/03/04 01:56:06;;;;;;;5.72;5.22;;;21.00;49.10;;;;;;4995087;28;20235;-69
2022/03/04 01:58:33;;;;;;;6.00;5.40;;;21.00;49.10;;;;;;4978515;28;20195;-69
2022/03/04 02:00:59;;;;;;;5.80;5.30;;;21.00;49.10;;;;;;4978840;28;20176;-69
2022/03/04 02:03:25;;;;;;;6.38;5.50;;;21.00;49.20;;;;;;4995076;28;20255;-69
2022/03/04 02:05:51;;;;;;;6.28;5.68;;;21.00;49.20;;;;;;4995024;28;20204;-69
2022/03/04 02:08:17;;;;;;;6.22;5.63;;;21.00;49.10;;;;;;4978544;28;20255;-70
2022/03/04 02:10:43;;;;;;;6.95;6.10;;;21.00;49.10;;;;;;4995015;28;20175;-69
2022/03/04 02:13:08;;;;;;;5.78;5.28;;;21.10;49.00;;;;;;4995238;28;20234;-69
2022/03/04 02:15:34;;;;;;;6.18;5.60;;;21.00;49.00;;;;;;4994770;28;20218;-69
2022/03/04 02:18:00;;;;;;;7.70;6.90;;;21.00;48.90;;;;;;4994955;28;20251;-69
2022/03/04 02:20:30;;;;;;;7.05;6.35;;;21.00;48.90;;;;;;4978650;28;20180;-70
2022/03/04 02:22:55;;;;;;;8.15;6.45;;;21.00;48.80;;;;;;4978633;28;20188;-69
2022/03/04 02:25:21;;;;;;;6.72;5.18;;;21.00;48.90;;;;;;4978425;28;20211;-69
2022/03/04 02:27:47;;;;;;;7.07;5.30;;;20.90;48.80;;;;;;4994852;28;20176;-68
2022/03/04 02:30:14;;;;;;;5.80;5.20;;;20.90;48.80;;;;;;5012202;28;20228;-69
2022/03/04 02:32:40;;;;;;;5.72;5.22;;;20.90;48.90;;;;;;5012261;28;20188;-69
2022/03/04 02:35:06;;;;;;;6.60;4.88;;;21.00;48.90;;;;;;4994779;28;20749;-69
2022/03/04 02:37:32;;;;;;;5.93;5.38;;;21.00;48.90;;;;;;4994640;28;20182;-70
2022/03/04 02:39:57;;;;;;;5.82;5.22;;;21.00;48.90;;;;;;4994552;28;20177;-69
2022/03/04 02:42:23;;;;;;;5.53;5.03;;;21.00;49.00;;;;;;4978750;28;20184;-69
2022/03/04 02:44:51;;;;;;;5.20;4.70;;;21.00;48.90;;;;;;4995133;28;20271;-69
2022/03/04 02:47:18;;;;;;;5.25;4.75;;;21.00;48.90;;;;;;4979076;28;20248;-69
2022/03/04 02:49:43;;;;;;;5.55;4.85;;;21.00;48.90;;;;;;4982103;28;20211;-70
2022/03/04 02:52:09;;;;;;;5.57;4.95;;;21.00;49.00;;;;;;4998475;28;20176;-69
2022/03/04 02:54:36;;;;;;;5.10;4.63;;;21.00;49.00;;;;;;4998509;28;20172;-69
2022/03/04 02:57:02;;;;;;;5.88;5.38;;;21.00;48.90;;;;;;4981755;28;20203;-69
2022/03/04 02:59:28;;;;;;;5.80;5.28;;;21.00;49.00;;;;;;4998090;28;20168;-69
2022/03/04 03:01:54;;;;;;;7.65;5.60;;;20.90;48.90;;;;;;5001159;28;20199;-70
2022/03/04 03:04:20;;;;;;;6.05;5.45;;;21.00;49.00;;;;;;5003929;28;20262;-70
2022/03/04 03:06:46;;;;;;;6.07;5.10;;;21.00;49.00;;;;;;5015361;28;20286;-69
2022/03/04 03:09:11;;;;;;;6.50;5.63;;;21.00;48.90;;;;;;4997591;28;20200;-69
2022/03/04 03:11:38;;;;;;;6.50;5.57;;;20.90;48.90;;;;;;4998198;28;20602;-69
2022/03/04 03:14:03;;;;;;;6.70;5.50;;;21.00;49.00;;;;;;4997788;28;20619;-69
2022/03/04 03:16:29;;;;;;;5.97;5.38;;;20.90;48.70;;;;;;4998004;28;20254;-69
2022/03/04 03:18:55;;;;;;;6.45;5.80;;;21.00;48.90;;;;;;4997594;28;20283;-69
2022/03/04 03:21:20;;;;;;;6.03;5.43;;;21.00;48.90;;;;;;4981719;28;20196;-69
2022/03/04 03:23:47;;;;;;;5.80;5.20;;;20.90;48.80;;;;;;4981843;28;20176;-69
2022/03/04 03:26:13;;;;;;;4.78;4.38;;;20.90;48.90;;;;;;4997787;28;20685;-70
2022/03/04 03:28:39;;;;;;;4.90;4.50;;;20.90;48.90;;;;;;4997438;28;20208;-69
2022/03/04 03:31:04;;;;;;;4.53;4.13;;;21.00;49.00;;;;;;4997882;28;20172;-70
2022/03/04 03:33:31;;;;;;;5.32;4.82;;;21.00;48.90;;;;;;4981144;28;20222;-68
2022/03/04 03:35:57;;;;;;;5.68;5.13;;;21.00;49.00;;;;;;5015319;28;20192;-70
2022/03/04 03:38:24;;;;;;;5.68;5.13;;;20.90;49.00;;;;;;4997128;28;20188;-69
2022/03/04 03:40:50;;;;;;;6.35;4.55;;;20.90;49.00;;;;;;5014862;28;20302;-69
2022/03/04 03:43:16;;;;;;;5.40;4.90;;;20.90;49.00;;;;;;4981363;28;20668;-70
2022/03/04 03:45:42;;;;;;;4.95;4.55;;;20.90;48.90;;;;;;4988392;28;20213;-69
2022/03/04 03:48:09;;;;;;;5.07;4.68;;;20.90;49.10;;;;;;4973867;28;20184;-71
2022/03/04 03:50:36;;;;;;;5.18;4.70;;;20.90;49.00;;;;;;4984944;28;20278;-68
2022/03/04 03:53:01;;;;;;;5.15;4.65;;;20.90;49.00;;;;;;4979072;28;20198;-71
2022/03/04 03:55:27;;;;;;;5.95;5.38;;;20.90;49.00;;;;;;4981311;28;20205;-69
2022/03/04 03:57:53;;;;;;;5.72;5.22;;;20.90;49.00;;;;;;4978470;28;20238;-69
2022/03/04 04:00:18;;;;;;;5.72;5.13;;;20.90;49.10;;;;;;4996595;28;20560;-69
2022/03/04 04:02:44;;;;;;;6.07;5.20;;;20.90;49.00;;;;;;4997127;28;20223;-69
2022/03/04 04:05:12;;;;;;;6.25;5.50;;;20.90;49.00;;;;;;4996786;28;20188;-69
2022/03/04 04:07:38;;;;;;;5.70;4.95;;;20.90;49.10;;;;;;4996647;28;20184;-69
2022/03/04 04:10:05;;;;;;;5.93;5.32;;;20.90;49.00;;;;;;4980260;28;20216;-69
2022/03/04 04:12:31;;;;;;;7.05;5.68;;;21.00;49.00;;;;;;5013166;28;20172;-69
2022/03/04 04:14:56;;;;;;;6.57;5.80;;;20.90;48.80;;;;;;5014278;28;20594;-69
2022/03/04 04:17:22;;;;;;;6.50;5.40;;;20.90;48.80;;;;;;5012827;28;20199;-69
2022/03/04 04:19:48;;;;;;;5.68;4.85;;;20.90;48.80;;;;;;5014070;28;20180;-69
2022/03/04 04:22:14;;;;;;;5.82;5.15;;;20.90;48.80;;;;;;5012969;28;20242;-69
2022/03/04 04:24:40;;;;;;;5.13;4.63;;;20.90;48.90;;;;;;4996609;28;20191;-69
2022/03/04 04:27:05;;;;;;;5.50;5.00;;;20.90;48.80;;;;;;4996537;28;20204;-68
2022/03/04 04:29:32;;;;;;;4.97;4.47;;;20.90;49.10;;;;;;4996206;28;20738;-68
2022/03/04 04:31:57;;;;;;;4.40;4.00;;;20.90;49.00;;;;;;5013116;28;20267;-69
2022/03/04 04:34:23;;;;;;;4.78;4.38;;;20.90;49.00;;;;;;4996419;28;20240;-69
2022/03/04 04:36:49;;;;;;;4.78;4.38;;;20.90;49.00;;;;;;4996381;28;20226;-69
2022/03/04 04:39:15;;;;;;;5.82;4.75;;;20.90;49.10;;;;;;4979769;28;20175;-69
2022/03/04 04:41:44;;;;;;;5.82;4.78;;;20.90;49.00;;;;;;4980072;28;20247;-69
2022/03/04 04:44:10;;;;;;;4.90;4.40;;;20.90;49.10;;;;;;4996335;28;20188;-69
2022/03/04 04:46:36;;;;;;;6.13;5.05;;;20.90;49.00;;;;;;4979930;28;20203;-69
2022/03/04 04:49:02;;;;;;;5.53;5.03;;;20.90;49.00;;;;;;4995870;28;20266;-69
2022/03/04 04:51:28;;;;;;;6.45;5.40;;;20.90;49.00;;;;;;4979807;28;20593;-69
2022/03/04 04:53:54;;;;;;;7.25;5.25;;;20.90;49.00;;;;;;4996230;28;20180;-69
2022/03/04 04:56:20;;;;;;;5.60;5.10;;;20.90;48.90;;;;;;4979934;28;20200;-69
2022/03/04 04:58:46;;;;;;;5.82;5.20;;;20.90;49.00;;;;;;4979492;28;20191;-69
2022/03/04 05:01:12;;;;;;;9.27;6.35;;;20.90;48.90;;;;;;4979594;28;20187;-69
2022/03/04 05:03:38;;;;;;;6.60;6.00;;;20.90;49.10;;;;;;4995774;28;20206;-69
2022/03/04 05:06:04;;;;;;;6.63;5.80;;;20.90;49.00;;;;;;4995555;28;20204;-69
2022/03/04 05:08:29;;;;;;;6.57;5.85;;;20.90;48.80;;;;;;4995440;28;20211;-69
2022/03/04 05:10:58;;;;;;;6.65;6.05;;;20.80;48.80;;;;;;4995233;28;20183;-68
2022/03/04 05:13:24;;;;;;;6.63;5.97;;;20.90;48.90;;;;;;4995544;28;20278;-69
2022/03/04 05:15:50;;;;;;;6.60;5.47;;;20.90;48.80;;;;;;5013329;28;20687;-69
2022/03/04 05:18:16;;;;;;;6.07;5.05;;;20.80;48.60;;;;;;4979350;28;20204;-69
2022/03/04 05:20:43;;;;;;;5.80;5.22;;;20.80;48.80;;;;;;4995521;28;20180;-69
2022/03/04 05:23:09;;;;;;;5.20;4.70;;;20.80;48.80;;;;;;4979586;28;20180;-68
2022/03/04 05:25:35;;;;;;;6.18;4.72;;;20.90;49.00;;;;;;4995439;28;20624;-69
2022/03/04 05:28:01;;;;;;;4.75;4.35;;;20.90;49.00;;;;;;4995510;28;20223;-69
2022/03/04 05:30:27;;;;;;;5.07;4.57;;;20.90;49.00;;;;;;4995414;28;20307;-69
2022/03/04 05:32:52;;;;;;;5.72;5.10;;;20.80;48.80;;;;;;4995376;28;20251;-69
2022/03/04 05:35:18;;;;;;;5.85;5.10;;;20.80;48.80;;;;;;4995117;28;20195;-69
2022/03/04 05:37:44;;;;;;;5.13;4.65;;;20.80;48.90;;;;;;4992863;28;20183;-69
2022/03/04 05:40:11;;;;;;;5.70;5.20;;;20.80;48.90;;;;;;5012624;28;20215;-69
2022/03/04 05:42:37;;;;;;;5.10;4.60;;;20.90;48.90;;;;;;4995502;28;20180;-69
2022/03/04 05:45:04;;;;;;;5.93;4.82;;;20.80;48.80;;;;;;4995139;28;20194;-69
2022/03/04 05:47:29;;;;;;;5.07;4.60;;;20.80;48.80;;;;;;4979232;28;20231;-69
2022/03/04 05:49:55;;;;;;;5.70;5.10;;;20.80;48.90;;;;;;4979102;28;20215;-69
2022/03/04 05:52:21;;;;;;;6.10;5.50;;;20.80;48.80;;;;;;4978868;28;20180;-69
2022/03/04 05:54:47;;;;;;;6.28;5.68;;;20.90;48.80;;;;;;4995073;28;20181;-69
2022/03/04 05:57:12;;;;;;;5.80;5.22;;;20.80;48.80;;;;;;4978745;28;20215;-68
2022/03/04 05:59:38;;;;;;;6.25;5.72;;;20.80;48.80;;;;;;4995092;28;20235;-69
2022/03/04 06:02:04;;;;;;;6.22;5.53;;;20.80;48.60;;;;;;5012705;28;20216;-69
2022/03/04 06:04:30;;;;;;;6.03;5.43;;;20.80;48.50;;;;;;4995102;28;20622;-69
2022/03/04 06:06:56;;;;;;;6.10;5.50;;;20.80;48.50;;;;;;4995053;28;20244;-69
2022/03/04 06:09:27;;;;;;;7.00;6.30;;;20.80;48.60;;;;;;4994445;28;20207;-69
2022/03/04 06:11:54;;;;;;;6.30;5.30;;;20.80;48.70;;;;;;4994803;28;20179;-69
2022/03/04 06:14:20;;;;;;;5.30;4.80;;;20.80;48.70;;;;;;4978700;28;20192;-69
2022/03/04 06:16:46;;;;;;;5.32;4.82;;;20.80;48.70;;;;;;4975525;28;20222;-69
2022/03/04 06:19:12;;;;;;;5.07;4.57;;;20.80;48.70;;;;;;4991376;28;20291;-69
2022/03/04 06:21:38;;;;;;;5.13;4.57;;;20.80;48.70;;;;;;4976725;28;20228;-68
2022/03/04 06:24:04;;;;;;;5.35;4.85;;;20.80;48.80;;;;;;4979584;28;20199;-69
2022/03/04 06:26:30;;;;;;;6.60;5.07;;;20.80;48.80;;;;;;4979151;28;20224;-69
2022/03/04 06:28:56;;;;;;;4.88;4.45;;;20.80;48.80;;;;;;4978891;28;20213;-68
2022/03/04 06:31:22;;;;;;;4.47;4.07;;;20.80;48.70;;;;;;5006776;28;20168;-69
2022/03/04 06:33:47;;;;;;;4.45;4.05;;;20.80;48.80;;;;;;5018191;28;20246;-69
2022/03/04 06:36:14;;;;;;;5.03;4.53;;;20.80;48.80;;;;;;5001628;28;20226;-69
2022/03/04 06:38:43;;;;;;;4.70;4.30;;;20.80;48.80;;;;;;4979403;28;20255;-69
2022/03/04 06:41:11;;;;;;;4.88;4.38;;;20.80;48.80;;;;;;4979062;28;20185;-69
2022/03/04 06:43:38;;;;;;;5.75;5.15;;;20.80;48.80;;;;;;4979059;28;20553;-69
2022/03/04 06:46:05;;;;;;;6.55;5.72;;;20.80;49.00;;;;;;4962671;28;20304;-69
2022/03/04 06:48:31;;;;;;;6.88;5.88;;;20.80;49.00;;;;;;4991506;28;20202;-68
2022/03/04 06:50:57;;;;;;;6.63;5.97;;;20.80;49.20;;;;;;4998916;28;20785;-68
2022/03/04 06:53:24;;;;;;;6.63;6.00;;;20.80;49.30;;;;;;4998348;28;20211;-68
2022/03/04 06:55:50;;;;;;;6.18;5.63;;;20.80;49.30;;;;;;5020336;23;20233;-69
2022/03/04 06:58:17;;;;;;;7.43;6.20;;;20.70;49.50;;;;;;4978293;28;20235;-69
2022/03/04 07:00:43;;;;;;;7.00;6.30;;;20.70;49.30;;;;;;4979793;28;20326;-69
2022/03/04 07:03:09;;;;;;;9.88;6.32;;;20.70;49.50;;;;;;4981351;28;20256;-70
2022/03/04 07:05:36;;;;;;;7.13;5.90;;;20.70;49.40;;;;;;4967782;28;20181;-69
2022/03/04 07:08:03;;;;;;;10.38;5.75;;;20.80;49.80;;;;;;4970032;28;20646;-69
2022/03/04 07:10:29;;;;;;;5.88;4.40;;;20.80;49.80;;;;;;4961983;28;20204;-69
2022/03/04 07:12:55;;;;;;;5.88;4.43;;;20.80;50.00;;;;;;4970173;28;20188;-69
2022/03/04 07:15:21;;;;;;;5.55;4.47;;;20.70;50.00;;;;;;4978044;28;20185;-69
2022/03/04 07:17:47;;;;;;;5.38;4.85;;;20.70;50.00;;;;;;4961779;28;20205;-70
2022/03/04 07:20:13;;;;;;;6.45;4.63;;;20.80;50.10;;;;;;4978651;28;20193;-70
2022/03/04 07:22:40;;;;;;;5.63;4.53;;;20.80;50.10;;;;;;4972731;28;20708;-69
2022/03/04 07:25:09;;;;;;;4.68;4.28;;;20.80;50.40;;;;;;4962102;28;20205;-69
2022/03/04 07:27:35;;;;;;;5.43;4.53;;;20.70;50.20;;;;;;4961745;28;20208;-69
2022/03/04 07:30:07;;;;;;;5.68;4.95;;;20.80;50.30;;;;;;4987596;28;20669;-69
2022/03/04 07:32:33;;;;;;;4.85;4.32;;;20.80;50.20;;;;;;4977758;28;20192;-69
2022/03/04 07:34:59;;;;;;;6.28;4.65;;;20.90;50.20;;;;;;4974852;28;20177;-69
2022/03/04 07:37:25;;;;;;;6.15;4.85;;;20.90;50.00;;;;;;4962118;28;20201;-70
2022/03/04 07:39:51;;;;;;;7.32;5.50;;;20.90;50.10;;;;;;4962034;28;20189;-69
2022/03/04 07:42:17;;;;;;;9.75;6.28;;;21.00;50.20;;;;;;4981254;28;20188;-70
2022/03/04 07:44:43;;;;;;;6.32;5.72;;;21.00;50.00;;;;;;4995598;28;20284;-69
2022/03/04 07:47:09;;;;;;;7.07;5.65;;;21.00;50.00;;;;;;4977626;28;20232;-69
2022/03/04 07:49:35;;;;;;;7.57;6.15;;;21.00;49.80;;;;;;4961215;28;20212;-70
2022/03/04 07:52:01;;;;;;;7.82;6.32;;;21.00;49.80;;;;;;4977481;28;20207;-70
2022/03/04 07:54:27;;;;;;;8.80;5.70;;;21.00;49.80;;;;;;4976947;28;20188;-70
2022/03/04 07:56:52;;;;;;;9.52;5.68;;;21.00;49.70;;;;;;5001173;28;20215;-69
2022/03/04 07:59:19;;;;;;;8.43;5.80;;;21.10;49.70;;;;;;4961001;28;20189;-69
2022/03/04 08:01:45;;;;;;;7.60;5.80;;;21.00;49.70;;;;;;4964751;28;20217;-69
2022/03/04 08:04:11;;;;;;;6.22;5.10;;;21.10;49.80;;;;;;4977305;28;20656;-70
2022/03/04 08:06:39;;;;;;;11.43;4.75;;;21.10;49.50;;;;;;4977454;28;20295;-69
2022/03/04 08:09:05;;;;;;;4.97;4.35;;;21.10;49.70;;;;;;4961000;28;20212;-69
2022/03/04 08:11:31;;;;;;;6.28;5.10;;;21.20;49.70;;;;;;4960961;28;20195;-70
2022/03/04 08:13:57;;;;;;;9.38;4.70;;;21.20;50.40;;;;;;4977235;28;20181;-70
2022/03/04 08:16:24;;;;;;;9.98;5.32;;;21.20;49.80;;;;;;4977092;28;20205;-70
2022/03/04 08:18:50;;;;;;;8.15;4.80;;;21.20;49.70;;;;;;4976741;28;20199;-69
2022/03/04 08:21:16;;;;;;;7.82;4.72;;;21.20;49.60;;;;;;4980513;28;20185;-70
2022/03/04 08:23:42;;;;;;;6.63;4.68;;;21.30;49.70;;;;;;4968808;28;20200;-70
2022/03/04 08:26:09;;;;;;;8.70;4.90;;;21.20;49.60;;;;;;4976726;28;20296;-69
2022/03/04 08:28:35;;;;;;;7.53;4.90;;;21.30;49.70;;;;;;4960916;28;20189;-68
2022/03/04 08:31:03;;;;;;;7.18;4.70;;;21.30;49.60;;;;;;4985388;28;20173;-70
2022/03/04 08:33:29;;;;;;;8.10;4.97;;;21.30;49.60;;;;;;4976979;28;20195;-70
2022/03/04 08:35:55;;;;;;;6.35;4.57;;;21.30;49.70;;;;;;4976644;28;20193;-70
2022/03/04 08:38:20;;;;;;;6.38;4.90;;;21.30;50.20;;;;;;4960550;28;20192;-70
2022/03/04 08:40:46;;;;;;;5.90;5.00;;;21.30;49.60;;;;;;4976660;28;20272;-70
2022/03/04 08:43:12;;;;;;;9.70;5.85;;;21.30;49.70;;;;;;4968154;28;20283;-69
2022/03/04 08:45:38;;;;;;;9.45;5.43;;;21.30;49.60;;;;;;4975983;28;20303;-69
2022/03/04 08:48:06;;;;;;;7.45;5.80;;;21.30;49.40;;;;;;4993933;28;20177;-70
2022/03/04 08:50:34;;;;;;;8.73;6.10;;;21.30;49.40;;;;;;4976254;28;20213;-70
2022/03/04 08:53:01;;;;;;;10.20;5.82;;;21.30;49.20;;;;;;4960336;28;20235;-70
2022/03/04 08:55:30;;;;;;;10.00;5.22;;;21.40;49.50;;;;;;4960765;28;20184;-70
2022/03/04 08:57:57;;;;;;;7.40;5.10;;;21.40;49.40;;;;;;4976367;28;20913;-70
2022/03/04 09:00:24;;;;;;;7.10;5.20;;;21.30;49.30;;;;;;4975921;28;20189;-70
2022/03/04 09:02:50;;;;;;;5.97;5.10;;;21.40;49.20;;;;;;4975882;28;20216;-70
2022/03/04 09:05:17;;;;;;;7.72;5.03;;;21.40;49.50;;;;;;4976520;28;20195;-70
2022/03/04 09:07:43;;;;;;;7.60;4.97;;;21.40;49.30;;;;;;4960095;28;20236;-69
2022/03/04 09:10:09;;;;;;;7.70;5.00;;;21.40;49.40;;;;;;4960135;28;20216;-69
2022/03/04 09:12:35;;;;;;;8.32;4.85;;;21.40;49.20;;;;;;4993227;28;20181;-70
2022/03/04 09:15:03;;;;;;;5.35;4.47;;;21.40;49.40;;;;;;4941211;28;20280;-70
2022/03/04 09:17:29;;;;;;;5.55;4.68;;;21.40;49.40;;;;;;4940556;28;20202;-70
2022/03/04 09:19:54;;;;;;;5.93;5.18;;;21.40;49.20;;;;;;4973821;28;20213;-69
2022/03/04 09:22:20;;;;;;;7.55;4.72;;;21.40;49.30;;;;;;4974166;28;20188;-70
2022/03/04 09:24:46;;;;;;;6.20;4.90;;;21.40;49.30;;;;;;4959896;28;20677;-69
2022/03/04 09:27:12;;;;;;;7.70;5.28;;;21.40;49.40;;;;;;4959573;28;20200;-70
2022/03/04 09:29:37;;;;;;;6.68;4.85;;;21.40;49.40;;;;;;4959163;28;20282;-70
2022/03/04 09:32:04;;;;;;;6.07;4.80;;;21.40;49.40;;;;;;4960900;28;20181;-70
2022/03/04 09:34:31;;;;;;;7.55;4.65;;;21.40;49.40;;;;;;4993142;28;20181;-69
2022/03/04 09:36:57;;;;;;;5.40;4.35;;;21.40;49.30;;;;;;4975858;28;20258;-70
2022/03/04 09:39:22;;;;;;;10.10;5.28;;;21.40;49.30;;;;;;4993011;28;20177;-70
2022/03/04 09:41:49;;;;;;;6.82;5.10;;;21.40;49.20;;;;;;4959114;28;20188;-69
2022/03/04 09:44:16;;;;;;;8.43;5.00;;;21.40;49.20;;;;;;4975775;28;20188;-69
2022/03/04 09:46:44;;;;;;;10.18;5.72;;;21.40;49.20;;;;;;4975770;28;20212;-70
2022/03/04 09:49:14;;;;;;;9.55;6.25;;;21.40;49.20;;;;;;4959068;28;20212;-70
2022/03/04 09:51:40;;;;;;;7.15;5.07;;;21.40;48.90;;;;;;4975481;28;20185;-70
2022/03/04 09:54:05;;;;;;;5.78;5.20;;;21.40;48.90;;;;;;4975795;28;20753;-69
2022/03/04 09:56:31;;;;;;;9.30;5.15;;;21.40;49.10;;;;;;4958969;28;20212;-69
2022/03/04 09:58:57;;;;;;;7.55;4.57;;;21.40;48.90;;;;;;4959357;28;20181;-69
2022/03/04 10:01:23;;;;;;;11.30;5.00;;;21.40;48.70;;;;;;4959156;28;20181;-70
2022/03/04 10:03:55;;;;;;;9.00;5.10;;;21.40;49.00;;;;;;4992867;28;20189;-69
2022/03/04 10:06:23;;;;;;;6.82;5.18;;;21.40;48.90;;;;;;4975364;28;20259;-70
2022/03/04 10:08:52;;;;;;;7.65;4.68;;;21.40;49.10;;;;;;4975411;28;20217;-70
2022/03/04 10:11:33;;;;;;;7.82;4.68;;;21.40;49.20;;;;;;4975072;28;20191;-70
2022/03/04 10:14:07;;;;;;;7.25;4.93;;;21.40;49.20;;;;;;4959429;28;20181;-70
2022/03/04 10:16:37;;;;;;;5.78;5.18;;;21.40;49.20;;;;;;4959344;28;20258;-70
2022/03/04 10:19:19;;;;;;;8.95;5.07;;;21.40;49.30;;;;;;4959200;28;20252;-70
2022/03/04 10:22:05;;;;;;;5.63;5.13;;;21.40;49.40;;;;;;4975198;28;20282;-70
2022/03/04 10:24:32;;;;;;;9.57;4.95;;;21.40;49.60;;;;;;4992665;28;20181;-70
2022/03/04 10:27:09;;;;;;;5.40;4.30;;;21.40;49.50;;;;;;4974998;28;20795;-69
2022/03/04 10:29:48;;;;;;;7.65;4.97;;;21.40;49.70;;;;;;4974935;28;20201;-71
2022/03/04 10:32:13;;;;;;;7.22;4.50;;;21.40;49.50;;;;;;4975171;28;20177;-70
2022/03/04 10:34:57;;;;;;;7.45;4.63;;;21.40;49.60;;;;;;4974999;28;20188;-70
2022/03/04 10:37:54;;;;;;;7.15;4.90;;;21.40;49.60;;;;;;4959271;28;20208;-70
2022/03/04 10:40:25;;;;;;;9.27;5.65;;;21.40;49.70;;;;;;4958621;28;20185;-70
2022/03/04 10:43:06;;;;;;;6.07;4.78;;;21.40;49.70;;;;;;4972663;28;20725;-69
2022/03/04 10:45:40;;;;;;;6.43;4.90;;;21.50;49.80;;;;;;4975267;28;20166;-70
2022/03/04 10:48:18;;;;;;;9.10;4.10;;;21.50;49.50;;;;;;4974839;28;20211;-71
2022/03/04 10:50:56;;;;;;;7.00;4.82;;;21.40;49.70;;;;;;4974575;28;20215;-70
2022/03/04 10:53:28;;;;;;;7.43;4.45;;;21.50;49.80;;;;;;4974802;28;20646;-70
2022/03/04 10:56:04;;;;;;;6.43;4.63;;;21.50;49.70;;;;;;4958708;28;20212;-69
2022/03/04 10:58:33;;;;;;;9.73;4.90;;;21.50;49.80;;;;;;4958463;28;20173;-69
2022/03/04 11:01:09;;;;;;;9.80;5.00;;;21.50;49.80;;;;;;4963599;28;20193;-70
2022/03/04 11:03:38;;;;;;;9.05;5.47;;;21.50;49.80;;;;;;4974779;28;20197;-70
2022/03/04 11:06:15;;;;;;;7.50;5.30;;;21.50;49.40;;;;;;4958967;28;20205;-70
2022/03/04 11:08:43;;;;;;;9.95;5.40;;;21.50;49.50;;;;;;4960270;28;20192;-70
2022/03/04 11:11:10;;;;;;;8.68;4.85;;;21.50;49.70;;;;;;4977885;28;20185;-70
2022/03/04 11:13:37;;;;;;;11.93;4.78;;;21.50;49.60;;;;;;4969888;28;20192;-70
2022/03/04 11:16:07;;;;;;;9.35;4.65;;;21.50;49.60;;;;;;4978321;28;20200;-70
2022/03/04 11:18:34;;;;;;;7.20;4.63;;;21.50;49.60;;;;;;4978253;28;20238;-71
2022/03/04 11:21:01;;;;;;;8.98;4.85;;;21.50;49.70;;;;;;4995149;28;20634;-72
2022/03/04 11:23:31;;;;;;;8.68;4.68;;;21.50;49.90;;;;;;4995472;28;20245;-72
2022/03/04 11:25:59;;;;;;;5.35;4.50;;;21.50;49.90;;;;;;4978432;28;20201;-72
2022/03/04 11:28:36;;;;;;;8.48;4.00;;;21.50;50.00;;;;;;4978145;28;20189;-71
2022/03/04 11:31:06;;;;;;;10.25;4.38;;;21.50;50.10;;;;;;4949301;28;20177;-72
2022/03/04 11:33:41;;;;;;;8.45;4.88;;;21.50;50.30;;;;;;4995312;28;20187;-72
2022/03/04 11:36:25;;;;;;;10.30;4.97;;;21.50;50.30;;;;;;4976743;28;20204;-72
2022/03/04 11:38:53;;;;;;;16.38;6.00;;;21.50;50.50;;;;;;4962248;28;20196;-73
2022/03/04 11:41:23;;;;;;;8.93;5.28;;;21.50;50.50;;;;;;4977275;28;20181;-72
2022/03/04 11:43:56;;;;;;;6.75;4.90;;;21.50;50.50;;;;;;4961547;28;20185;-72
2022/03/04 11:46:42;;;;;;;11.52;4.55;;;21.50;50.60;;;;;;4995188;28;20699;-71
2022/03/04 11:49:30;;;;;;;6.88;4.40;;;21.50;50.60;;;;;;4961362;28;20208;-72
2022/03/04 11:52:24;;;;;;;10.18;4.32;;;21.50;50.80;;;;;;4972379;28;20220;-72
2022/03/04 11:54:51;;;;;;;9.55;5.30;;;21.50;51.00;;;;;;4977609;28;20184;-72
2022/03/04 11:57:33;;;;;;;9.77;5.80;;;21.50;50.90;;;;;;4960795;28;20224;-72
2022/03/04 12:00:09;;;;;;;9.70;5.32;;;21.50;51.00;;;;;;4961177;28;20180;-71
2022/03/04 12:02:55;;;;;;;6.47;4.35;;;21.60;51.00;;;;;;4976772;28;20276;-71
2022/03/04 12:05:27;;;;;;;8.35;4.53;;;21.50;51.10;;;;;;4976971;28;20247;-71
2022/03/04 12:07:56;;;;;;;7.78;4.32;;;21.50;51.30;;;;;;4994791;28;20200;-72
2022/03/04 12:10:30;;;;;;;7.35;4.20;;;21.60;51.40;;;;;;4960956;28;20216;-72
2022/03/04 12:13:22;;;;;;;7.68;4.45;;;21.50;51.20;;;;;;4994859;28;20712;-72
2022/03/04 12:15:57;;;;;;;9.65;5.15;;;21.60;51.50;;;;;;4961298;28;20181;-72
2022/03/04 12:18:27;;;;;;;9.68;5.10;;;21.50;51.40;;;;;;4961849;28;20196;-72
2022/03/04 12:20:56;;;;;;;7.97;5.22;;;21.50;51.40;;;;;;4959804;28;20204;-72
2022/03/04 12:23:47;;;;;;;8.25;4.93;;;21.50;51.40;;;;;;4977239;28;20276;-72
2022/03/04 12:26:22;;;;;;;9.48;4.30;;;21.50;51.50;;;;;;4977303;28;20221;-72
2022/03/04 12:29:10;;;;;;;8.38;4.55;;;21.50;51.30;;;;;;4961133;28;20259;-72
2022/03/04 12:31:44;;;;;;;7.70;4.22;;;21.50;51.30;;;;;;4965674;28;20185;-72
2022/03/04 12:34:24;;;;;;;8.20;5.25;;;21.60;51.50;;;;;;4976173;28;20185;-71
2022/03/04 12:36:54;;;;;;;8.50;4.63;;;21.50;51.40;;;;;;4971994;28;20212;-71
2022/03/04 12:39:22;;;;;;;7.95;4.90;;;21.50;51.40;;;;;;4976813;28;20168;-71
2022/03/04 12:41:55;;;;;;;5.82;4.47;;;21.60;51.50;;;;;;4968527;28;20663;-74
2022/03/04 12:44:20;;;;;;;9.25;4.45;;;21.50;51.50;;;;;;4976873;28;20188;-72
2022/03/04 12:46:47;;;;;;;9.05;4.93;;;21.50;51.50;;;;;;4976626;28;20283;-70
2022/03/04 12:49:16;;;;;;;10.07;4.72;;;21.50;51.50;;;;;;4976352;28;20267;-70